createdAt,value
2022-10-23T00:00:19.884Z,0.00
2022-10-23T00:00:59.031Z,0.00
2022-10-23T00:02:05.966Z,0.00
2022-10-23T00:02:58.814Z,0.00
2022-10-23T00:03:58.786Z,0.00
2022-10-23T00:04:58.752Z,0.00
2022-10-23T00:05:58.765Z,0.00
2022-10-23T00:06:58.750Z,0.00
2022-10-23T00:07:58.729Z,0.00
2022-10-23T00:08:58.729Z,0.00
2022-10-23T00:10:01.751Z,0.00
2022-10-23T00:11:01.714Z,0.00
2022-10-23T00:12:05.736Z,0.00
2022-10-23T00:12:58.704Z,0.00
2022-10-23T00:14:01.705Z,0.00
2022-10-23T00:14:59.878Z,0.00
2022-10-23T00:15:59.676Z,0.00
2022-10-23T00:16:58.649Z,0.00
2022-10-23T00:17:58.868Z,0.00
2022-10-23T00:18:58.606Z,0.00
2022-10-23T00:19:59.613Z,0.00
2022-10-23T00:20:59.831Z,0.00
2022-10-23T00:21:58.585Z,0.00
2022-10-23T00:22:58.575Z,0.00
2022-10-23T00:24:01.667Z,0.00
2022-10-23T00:24:59.823Z,0.00
2022-10-23T00:25:58.518Z,0.00
2022-10-23T00:26:58.530Z,0.00
2022-10-23T00:27:59.510Z,0.00
2022-10-23T00:28:58.543Z,0.00
2022-10-23T00:30:05.802Z,0.00
2022-10-23T00:30:58.467Z,0.00
2022-10-23T00:31:58.467Z,0.00
2022-10-23T00:32:58.449Z,0.00
2022-10-23T00:33:58.685Z,0.00
2022-10-23T00:34:58.667Z,0.00
2022-10-23T00:35:58.670Z,0.00
2022-10-23T00:36:58.417Z,0.00
2022-10-23T00:37:58.437Z,0.00
2022-10-23T00:39:05.723Z,0.00
2022-10-23T00:39:58.399Z,0.00
2022-10-23T00:40:58.372Z,0.00
2022-10-23T00:42:01.406Z,0.00
2022-10-23T00:42:58.558Z,0.00
2022-10-23T00:44:01.387Z,0.00
2022-10-23T00:44:58.345Z,0.00
2022-10-23T00:45:58.568Z,0.00
2022-10-23T00:47:01.340Z,0.00
2022-10-23T00:48:14.007Z,0.00
2022-10-23T00:49:01.398Z,0.00
2022-10-23T00:49:58.499Z,0.00
2022-10-23T00:50:58.513Z,0.00
2022-10-23T00:52:05.461Z,0.00
2022-10-23T00:53:01.503Z,0.00
2022-10-23T00:54:06.699Z,0.00
2022-10-23T00:54:59.231Z,0.00
2022-10-23T00:55:58.461Z,0.00
2022-10-23T00:57:01.481Z,0.00
2022-10-23T00:57:58.420Z,0.00
2022-10-23T00:58:58.432Z,0.00
2022-10-23T00:59:58.162Z,0.00
2022-10-23T01:00:58.458Z,0.00
2022-10-23T01:01:58.426Z,0.00
2022-10-23T01:02:59.390Z,0.00
2022-10-23T01:03:58.362Z,0.00
2022-10-23T01:04:58.143Z,0.00
2022-10-23T01:05:58.150Z,0.00
2022-10-23T01:07:01.103Z,0.00
2022-10-23T01:08:05.218Z,0.00
2022-10-23T01:08:58.307Z,0.00
2022-10-23T01:09:58.076Z,0.00
2022-10-23T01:11:01.305Z,0.00
2022-10-23T01:11:58.322Z,0.00
2022-10-23T01:13:13.665Z,0.00
2022-10-23T01:13:58.296Z,0.00
2022-10-23T01:14:59.038Z,0.00
2022-10-23T01:15:58.019Z,0.00
2022-10-23T01:16:58.028Z,0.00
2022-10-23T01:17:58.234Z,0.00
2022-10-23T01:18:57.972Z,0.00
2022-10-23T01:19:58.201Z,0.00
2022-10-23T01:20:58.210Z,0.00
2022-10-23T01:22:05.383Z,0.00
2022-10-23T01:22:58.188Z,0.00
2022-10-23T01:24:05.213Z,0.00
2022-10-23T01:25:05.108Z,0.00
2022-10-23T01:25:57.898Z,0.00
2022-10-23T01:26:58.920Z,0.00
2022-10-23T01:27:58.881Z,0.00
2022-10-23T01:28:57.881Z,0.00
2022-10-23T01:29:57.858Z,0.00
2022-10-23T01:30:58.848Z,0.00
2022-10-23T01:32:04.969Z,0.00
2022-10-23T01:32:58.071Z,0.00
2022-10-23T01:33:58.089Z,0.00
2022-10-23T01:34:58.028Z,0.00
2022-10-23T01:36:01.069Z,0.00
2022-10-23T01:36:58.023Z,0.00
2022-10-23T01:37:58.036Z,0.00
2022-10-23T01:38:57.821Z,0.00
2022-10-23T01:40:13.165Z,0.00
2022-10-23T01:41:00.996Z,0.00
2022-10-23T01:42:05.025Z,0.00
2022-10-23T01:42:57.968Z,0.00
2022-10-23T01:43:58.960Z,0.00
2022-10-23T01:44:57.948Z,0.00
2022-10-23T01:45:57.717Z,0.00
2022-10-23T01:46:57.888Z,0.00
2022-10-23T01:47:58.923Z,0.00
2022-10-23T01:48:57.914Z,0.00
2022-10-23T01:49:57.877Z,0.00
2022-10-23T01:50:57.629Z,0.00
2022-10-23T01:52:00.663Z,0.00
2022-10-23T01:52:58.881Z,0.00
2022-10-23T01:53:57.852Z,0.00
2022-10-23T01:54:57.592Z,0.00
2022-10-23T01:55:57.586Z,0.00
2022-10-23T01:56:58.581Z,0.00
2022-10-23T01:57:57.574Z,0.00
2022-10-23T01:58:57.532Z,0.00
2022-10-23T01:59:57.553Z,0.00
2022-10-23T02:00:57.859Z,0.00
2022-10-23T02:02:00.646Z,0.00
2022-10-23T02:02:57.515Z,0.00
2022-10-23T02:04:57.735Z,0.00
2022-10-23T02:05:58.736Z,0.00
2022-10-23T02:06:58.512Z,0.00
2022-10-23T02:07:58.458Z,0.00
2022-10-23T02:09:00.477Z,0.00
2022-10-23T02:09:57.711Z,0.00
2022-10-23T02:10:57.426Z,0.00
2022-10-23T02:11:57.415Z,0.00
2022-10-23T02:13:04.603Z,0.00
2022-10-23T02:13:58.637Z,0.00
2022-10-23T02:14:57.642Z,0.00
2022-10-23T02:15:57.366Z,0.00
2022-10-23T02:16:57.602Z,0.00
2022-10-23T02:17:58.602Z,0.00
2022-10-23T02:18:57.582Z,0.00
2022-10-23T02:19:58.337Z,0.00
2022-10-23T02:20:57.361Z,0.00
2022-10-23T02:21:57.537Z,0.00
2022-10-23T02:22:57.300Z,0.00
2022-10-23T02:23:58.305Z,0.00
2022-10-23T02:24:58.301Z,0.00
2022-10-23T02:25:57.287Z,0.00
2022-10-23T02:27:00.275Z,0.00
2022-10-23T02:27:58.279Z,0.00
2022-10-23T02:29:58.472Z,0.00
2022-10-23T02:30:57.468Z,0.00
2022-10-23T02:31:57.216Z,0.00
2022-10-23T02:32:58.434Z,0.00
2022-10-23T02:34:00.230Z,0.00
2022-10-23T02:34:57.403Z,0.00
2022-10-23T02:35:57.425Z,0.00
2022-10-23T02:36:57.149Z,0.00
2022-10-23T02:37:57.142Z,0.00
2022-10-23T02:39:04.429Z,0.00
2022-10-23T02:39:57.133Z,0.00
2022-10-23T02:40:57.370Z,0.00
2022-10-23T02:41:57.101Z,0.00
2022-10-23T02:42:58.113Z,0.00
2022-10-23T02:43:58.319Z,0.00
2022-10-23T02:44:58.103Z,0.00
2022-10-23T02:45:57.071Z,0.00
2022-10-23T02:47:04.139Z,0.00
2022-10-23T02:47:57.066Z,0.00
2022-10-23T02:48:57.023Z,0.00
2022-10-23T02:49:58.013Z,0.00
2022-10-23T02:50:57.025Z,0.00
2022-10-23T02:52:00.268Z,0.00
2022-10-23T02:53:17.982Z,0.00
2022-10-23T02:54:04.466Z,0.00
2022-10-23T02:54:57.200Z,0.00
2022-10-23T02:55:57.191Z,0.00
2022-10-23T02:56:58.180Z,0.00
2022-10-23T02:58:18.206Z,0.00
2022-10-23T02:58:56.937Z,0.00
2022-10-23T03:00:04.183Z,0.00
2022-10-23T03:00:57.186Z,0.00
2022-10-23T03:01:57.025Z,0.00
2022-10-23T03:02:56.872Z,0.00
2022-10-23T03:03:58.147Z,0.00
2022-10-23T03:05:00.123Z,0.00
2022-10-23T03:05:56.874Z,0.00
2022-10-23T03:06:56.862Z,0.00
2022-10-23T03:07:56.838Z,0.00
2022-10-23T03:08:56.849Z,0.00
2022-10-23T03:09:57.024Z,0.00
2022-10-23T03:10:56.807Z,0.00
2022-10-23T03:11:56.813Z,0.00
2022-10-23T03:12:58.027Z,0.00
2022-10-23T03:13:56.776Z,0.00
2022-10-23T03:14:56.745Z,0.00
2022-10-23T03:15:56.748Z,0.00
2022-10-23T03:16:56.976Z,0.00
2022-10-23T03:18:12.212Z,0.00
2022-10-23T03:18:56.941Z,0.00
2022-10-23T03:20:12.230Z,0.00
2022-10-23T03:20:57.693Z,0.00
2022-10-23T03:21:56.684Z,0.00
2022-10-23T03:22:59.939Z,0.00
2022-10-23T03:24:04.184Z,0.00
2022-10-23T03:24:57.878Z,0.00
2022-10-23T03:25:59.913Z,0.00
2022-10-23T03:26:59.884Z,0.00
2022-10-23T03:27:56.666Z,0.00
2022-10-23T03:28:57.854Z,0.00
2022-10-23T03:29:59.638Z,0.00
2022-10-23T03:30:59.853Z,0.00
2022-10-23T03:31:56.797Z,0.00
2022-10-23T03:32:57.566Z,0.00
2022-10-23T03:33:56.565Z,0.00
2022-10-23T03:34:59.802Z,0.00
2022-10-23T03:35:59.827Z,0.00
2022-10-23T03:36:56.561Z,0.00
2022-10-23T03:37:59.548Z,0.00
2022-10-23T03:38:56.530Z,0.00
2022-10-23T03:39:56.488Z,0.00
2022-10-23T03:40:56.477Z,0.00
2022-10-23T03:41:57.465Z,0.00
2022-10-23T03:42:59.495Z,0.00
2022-10-23T03:43:56.512Z,0.00
2022-10-23T03:44:56.712Z,0.00
2022-10-23T03:45:56.662Z,0.00
2022-10-23T03:46:56.671Z,0.00
2022-10-23T03:47:57.421Z,0.00
2022-10-23T03:48:56.408Z,0.00
2022-10-23T03:49:56.378Z,0.00
2022-10-23T03:50:57.410Z,0.00
2022-10-23T03:52:03.555Z,0.00
2022-10-23T03:52:56.613Z,0.00
2022-10-23T03:53:56.580Z,0.00
2022-10-23T03:54:56.328Z,0.00
2022-10-23T03:55:57.356Z,0.00
2022-10-23T03:56:57.630Z,0.00
2022-10-23T03:58:11.683Z,0.00
2022-10-23T03:58:56.519Z,0.00
2022-10-23T03:59:57.286Z,0.00
2022-10-23T04:00:59.367Z,0.00
2022-10-23T04:01:57.591Z,0.00
2022-10-23T04:02:56.247Z,0.00
2022-10-23T04:03:56.220Z,0.00
2022-10-23T04:04:56.245Z,0.00
2022-10-23T04:05:56.462Z,0.00
2022-10-23T04:06:56.423Z,0.00
2022-10-23T04:07:56.453Z,0.00
2022-10-23T04:08:56.164Z,0.00
2022-10-23T04:09:56.190Z,0.00
2022-10-23T04:10:56.400Z,0.00
2022-10-23T04:11:57.373Z,0.00
2022-10-23T04:12:56.136Z,0.00
2022-10-23T04:13:57.371Z,0.00
2022-10-23T04:14:56.363Z,0.00
2022-10-23T04:15:56.336Z,0.00
2022-10-23T04:16:56.340Z,0.00
2022-10-23T04:17:57.355Z,0.00
2022-10-23T04:19:17.091Z,0.00
2022-10-23T04:19:56.315Z,0.00
2022-10-23T04:20:56.081Z,0.00
2022-10-23T04:21:59.065Z,0.00
2022-10-23T04:22:57.060Z,0.00
2022-10-23T04:23:59.070Z,0.00
2022-10-23T04:25:03.435Z,0.00
2022-10-23T04:25:56.029Z,0.00
2022-10-23T04:26:57.248Z,0.00
2022-10-23T04:28:17.205Z,0.00
2022-10-23T04:28:55.981Z,0.00
2022-10-23T04:29:58.333Z,0.00
2022-10-23T04:30:55.989Z,0.00
2022-10-23T04:31:55.943Z,0.00
2022-10-23T04:33:18.186Z,0.00
2022-10-23T04:34:03.370Z,0.00
2022-10-23T04:34:56.140Z,0.00
2022-10-23T04:35:55.898Z,0.00
2022-10-23T04:36:56.147Z,0.00
2022-10-23T04:37:58.921Z,0.00
2022-10-23T04:38:55.895Z,0.00
2022-10-23T04:39:55.848Z,0.00
2022-10-23T04:40:59.095Z,0.00
2022-10-23T04:41:56.076Z,0.00
2022-10-23T04:42:56.068Z,0.00
2022-10-23T04:43:56.049Z,0.00
2022-10-23T04:44:55.797Z,0.00
2022-10-23T04:45:55.782Z,0.00
2022-10-23T04:46:55.797Z,0.00
2022-10-23T04:47:56.797Z,0.00
2022-10-23T04:48:57.001Z,0.00
2022-10-23T04:49:55.740Z,0.00
2022-10-23T04:50:55.747Z,0.00
2022-10-23T04:51:55.725Z,0.00
2022-10-23T04:52:55.750Z,0.00
2022-10-23T04:53:55.710Z,0.00
2022-10-23T04:54:55.709Z,0.00
2022-10-23T04:55:55.928Z,0.00
2022-10-23T04:56:55.679Z,0.00
2022-10-23T04:57:55.663Z,0.00
2022-10-23T04:58:55.706Z,0.00
2022-10-23T05:00:02.929Z,0.00
2022-10-23T05:00:55.661Z,0.00
2022-10-23T05:01:58.799Z,0.00
2022-10-23T05:03:03.114Z,0.00
2022-10-23T05:03:55.862Z,0.00
2022-10-23T05:04:55.622Z,0.00
2022-10-23T05:05:56.607Z,0.00
2022-10-23T05:06:56.559Z,0.00
2022-10-23T05:07:56.580Z,0.00
2022-10-23T05:08:58.823Z,0.00
2022-10-23T05:09:55.817Z,0.00
2022-10-23T05:10:55.770Z,0.00
2022-10-23T05:11:55.520Z,0.00
2022-10-23T05:12:56.742Z,0.00
2022-10-23T05:13:58.523Z,0.00
2022-10-23T05:14:55.491Z,0.00
2022-10-23T05:15:55.491Z,0.00
2022-10-23T05:16:55.716Z,0.00
2022-10-23T05:17:55.715Z,0.00
2022-10-23T05:18:56.463Z,0.00
2022-10-23T05:19:55.658Z,0.00
2022-10-23T05:20:55.666Z,0.00
2022-10-23T05:21:55.658Z,0.00
2022-10-23T05:22:56.443Z,0.00
2022-10-23T05:23:55.656Z,0.00
2022-10-23T05:24:58.392Z,0.00
2022-10-23T05:25:55.625Z,0.00
2022-10-23T05:26:55.368Z,0.00
2022-10-23T05:27:55.346Z,0.00
2022-10-23T05:28:55.565Z,0.00
2022-10-23T05:29:56.587Z,0.00
2022-10-23T05:30:55.576Z,0.00
2022-10-23T05:31:58.333Z,0.00
2022-10-23T05:32:55.292Z,0.00
2022-10-23T05:34:13.363Z,4.00
2022-10-23T05:34:55.276Z,4.00
2022-10-23T05:35:55.531Z,0.00
2022-10-23T05:36:55.266Z,4.00
2022-10-23T05:37:55.268Z,0.00
2022-10-23T05:38:58.254Z,4.00
2022-10-23T05:39:55.458Z,4.00
2022-10-23T05:40:55.223Z,4.00
2022-10-23T05:41:55.227Z,4.00
2022-10-23T05:43:16.443Z,8.00
2022-10-23T05:44:23.269Z,8.00
2022-10-23T05:45:02.435Z,8.00
2022-10-23T05:45:58.315Z,12.00
2022-10-23T05:46:56.418Z,16.00
2022-10-23T05:48:05.651Z,16.00
2022-10-23T05:48:56.189Z,16.00
2022-10-23T05:49:55.385Z,16.00
2022-10-23T05:50:55.161Z,20.00
2022-10-23T05:51:55.110Z,24.00
2022-10-23T05:52:58.120Z,24.00
2022-10-23T05:53:55.311Z,32.00
2022-10-23T05:54:55.070Z,32.00
2022-10-23T05:55:56.089Z,36.00
2022-10-23T05:56:55.300Z,40.00
2022-10-23T05:57:55.263Z,44.00
2022-10-23T05:59:10.551Z,48.00
2022-10-23T05:59:55.270Z,52.00
2022-10-23T06:01:02.447Z,56.00
2022-10-23T06:01:55.094Z,60.00
2022-10-23T06:02:56.228Z,64.00
2022-10-23T06:03:54.981Z,72.00
2022-10-23T06:04:58.234Z,92.00
2022-10-23T06:05:55.229Z,84.00
2022-10-23T06:06:55.167Z,92.00
2022-10-23T06:07:54.922Z,100.00
2022-10-23T06:08:55.149Z,112.00
2022-10-23T06:09:55.141Z,124.00
2022-10-23T06:10:54.912Z,128.00
2022-10-23T06:11:57.915Z,136.00
2022-10-23T06:12:54.893Z,148.00
2022-10-23T06:14:01.962Z,152.00
2022-10-23T06:14:55.877Z,160.00
2022-10-23T06:15:55.144Z,168.00
2022-10-23T06:16:55.841Z,176.00
2022-10-23T06:17:54.849Z,180.00
2022-10-23T06:18:57.856Z,184.00
2022-10-23T06:19:54.804Z,188.00
2022-10-23T06:20:54.792Z,188.00
2022-10-23T06:21:55.032Z,192.00
2022-10-23T06:22:57.809Z,200.00
2022-10-23T06:23:54.994Z,232.00
2022-10-23T06:24:55.990Z,256.00
2022-10-23T06:25:55.009Z,260.00
2022-10-23T06:26:54.978Z,260.00
2022-10-23T06:27:57.752Z,268.00
2022-10-23T06:28:54.937Z,284.00
2022-10-23T06:29:54.932Z,296.00
2022-10-23T06:30:55.946Z,304.00
2022-10-23T06:31:54.696Z,320.00
2022-10-23T06:32:54.916Z,336.00
2022-10-23T06:33:55.974Z,364.00
2022-10-23T06:34:55.657Z,392.00
2022-10-23T06:35:54.638Z,420.00
2022-10-23T06:36:57.650Z,444.00
2022-10-23T06:37:54.640Z,436.00
2022-10-23T06:38:54.664Z,444.00
2022-10-23T06:40:01.988Z,448.00
2022-10-23T06:40:54.818Z,464.00
2022-10-23T06:41:54.829Z,456.00
2022-10-23T06:42:54.574Z,436.00
2022-10-23T06:43:54.587Z,432.00
2022-10-23T06:44:55.533Z,428.00
2022-10-23T06:45:57.597Z,428.00
2022-10-23T06:46:54.506Z,424.00
2022-10-23T06:47:55.546Z,436.00
2022-10-23T06:48:54.726Z,440.00
2022-10-23T06:49:55.758Z,452.00
2022-10-23T06:51:16.490Z,456.00
2022-10-23T06:52:01.634Z,472.00
2022-10-23T06:52:54.692Z,484.00
2022-10-23T06:53:54.698Z,480.00
2022-10-23T06:54:54.678Z,496.00
2022-10-23T06:55:57.688Z,512.00
2022-10-23T06:56:54.651Z,524.00
2022-10-23T06:57:54.386Z,540.00
2022-10-23T06:58:54.422Z,560.00
2022-10-23T06:59:54.378Z,564.00
2022-10-23T07:00:54.667Z,564.00
2022-10-23T07:01:57.425Z,560.00
2022-10-23T07:03:01.598Z,556.00
2022-10-23T07:03:54.359Z,576.00
2022-10-23T07:04:54.582Z,580.00
2022-10-23T07:06:09.760Z,568.00
2022-10-23T07:06:55.330Z,572.00
2022-10-23T07:07:57.330Z,596.00
2022-10-23T07:08:54.554Z,616.00
2022-10-23T07:09:54.260Z,640.00
2022-10-23T07:10:54.261Z,692.00
2022-10-23T07:11:54.257Z,776.00
2022-10-23T07:12:57.268Z,860.00
2022-10-23T07:13:55.272Z,920.00
2022-10-23T07:14:54.478Z,932.00
2022-10-23T07:15:54.427Z,908.00
2022-10-23T07:16:54.235Z,920.00
2022-10-23T07:17:55.428Z,932.00
2022-10-23T07:18:54.182Z,920.00
2022-10-23T07:19:54.178Z,904.00
2022-10-23T07:20:54.150Z,892.00
2022-10-23T07:21:54.163Z,836.00
2022-10-23T07:22:55.160Z,824.00
2022-10-23T07:23:54.353Z,820.00
2022-10-23T07:24:55.372Z,792.00
2022-10-23T07:25:54.125Z,804.00
2022-10-23T07:26:54.350Z,828.00
2022-10-23T07:28:01.241Z,808.00
2022-10-23T07:29:18.098Z,844.00
2022-10-23T07:29:54.081Z,896.00
2022-10-23T07:30:54.285Z,916.00
2022-10-23T07:31:54.296Z,924.00
2022-10-23T07:32:55.344Z,984.00
2022-10-23T07:33:55.037Z,1016.00
2022-10-23T07:34:54.250Z,1024.00
2022-10-23T07:35:55.239Z,1016.00
2022-10-23T07:36:54.235Z,1020.00
2022-10-23T07:37:55.018Z,1036.00
2022-10-23T07:38:54.976Z,1000.00
2022-10-23T07:39:57.280Z,1020.00
2022-10-23T07:40:55.194Z,1060.00
2022-10-23T07:41:54.198Z,1092.00
2022-10-23T07:42:53.946Z,1116.00
2022-10-23T07:43:53.943Z,1144.00
2022-10-23T07:44:56.933Z,1164.00
2022-10-23T07:45:56.939Z,1192.00
2022-10-23T07:46:55.137Z,1228.00
2022-10-23T07:47:53.908Z,1240.00
2022-10-23T07:48:54.911Z,1220.00
2022-10-23T07:50:00.951Z,1212.00
2022-10-23T07:50:56.855Z,1248.00
2022-10-23T07:51:54.142Z,1312.00
2022-10-23T07:52:53.844Z,1376.00
2022-10-23T07:53:54.060Z,1392.00
2022-10-23T07:54:53.825Z,1392.00
2022-10-23T07:55:54.018Z,1372.00
2022-10-23T07:56:55.025Z,1368.00
2022-10-23T07:57:57.058Z,1404.00
2022-10-23T07:58:54.019Z,1388.00
2022-10-23T07:59:53.804Z,1392.00
2022-10-23T08:00:53.961Z,1452.00
2022-10-23T08:01:55.812Z,1472.00
2022-10-23T08:03:00.963Z,1512.00
2022-10-23T08:03:53.953Z,1536.00
2022-10-23T08:04:53.704Z,1620.00
2022-10-23T08:05:54.690Z,1640.00
2022-10-23T08:06:54.692Z,1628.00
2022-10-23T08:07:53.887Z,1628.00
2022-10-23T08:08:53.915Z,1584.00
2022-10-23T08:09:53.896Z,1612.00
2022-10-23T08:11:09.129Z,1656.00
2022-10-23T08:11:53.862Z,1684.00
2022-10-23T08:12:53.845Z,1680.00
2022-10-23T08:13:53.600Z,1696.00
2022-10-23T08:14:53.640Z,1680.00
2022-10-23T08:15:53.598Z,1648.00
2022-10-23T08:16:53.810Z,1640.00
2022-10-23T08:17:53.584Z,1636.00
2022-10-23T08:18:53.539Z,1672.00
2022-10-23T08:19:53.565Z,1696.00
2022-10-23T08:20:53.547Z,1676.00
2022-10-23T08:21:53.502Z,1660.00
2022-10-23T08:22:53.741Z,1672.00
2022-10-23T08:23:53.744Z,1700.00
2022-10-23T08:24:53.712Z,1728.00
2022-10-23T08:25:53.774Z,1768.00
2022-10-23T08:26:53.453Z,1784.00
2022-10-23T08:27:53.451Z,1804.00
2022-10-23T08:28:53.718Z,1872.00
2022-10-23T08:29:54.422Z,1972.00
2022-10-23T08:30:53.654Z,2024.00
2022-10-23T08:31:53.664Z,2036.00
2022-10-23T08:32:56.467Z,2044.00
2022-10-23T08:33:53.403Z,2076.00
2022-10-23T08:34:56.414Z,2108.00
2022-10-23T08:35:54.650Z,2044.00
2022-10-23T08:36:53.633Z,2040.00
2022-10-23T08:37:54.390Z,2124.00
2022-10-23T08:38:53.586Z,2344.00
2022-10-23T08:39:53.501Z,2316.00
2022-10-23T08:40:54.336Z,2324.00
2022-10-23T08:41:53.303Z,2292.00
2022-10-23T08:42:53.545Z,2400.00
2022-10-23T08:43:56.557Z,2876.00
2022-10-23T08:45:00.756Z,2964.00
2022-10-23T08:45:56.317Z,2904.00
2022-10-23T08:46:53.298Z,2696.00
2022-10-23T08:48:15.498Z,2608.00
2022-10-23T08:48:54.550Z,2544.00
2022-10-23T08:49:53.236Z,2464.00
2022-10-23T08:51:00.703Z,2424.00
2022-10-23T08:51:53.438Z,2404.00
2022-10-23T08:52:53.187Z,2432.00
2022-10-23T08:53:53.190Z,2480.00
2022-10-23T08:54:53.220Z,2568.00
2022-10-23T08:55:53.389Z,2644.00
2022-10-23T08:56:54.193Z,2716.00
2022-10-23T08:57:53.158Z,2700.00
2022-10-23T08:59:53.119Z,2620.00
2022-10-23T09:00:53.200Z,2588.00
2022-10-23T09:01:53.168Z,2580.00
2022-10-23T09:02:53.309Z,2568.00
2022-10-23T09:03:53.070Z,2580.00
2022-10-23T09:04:53.107Z,2632.00
2022-10-23T09:05:53.073Z,2772.00
2022-10-23T09:06:56.130Z,2860.00
2022-10-23T09:07:53.280Z,2916.00
2022-10-23T09:09:00.489Z,2912.00
2022-10-23T09:09:53.007Z,2932.00
2022-10-23T09:10:52.988Z,3016.00
2022-10-23T09:11:54.008Z,3108.00
2022-10-23T09:12:53.004Z,3104.00
2022-10-23T09:13:56.009Z,3104.00
2022-10-23T09:14:54.208Z,3064.00
2022-10-23T09:15:53.198Z,2948.00
2022-10-23T09:17:53.189Z,2888.00
2022-10-23T09:18:52.924Z,2828.00
2022-10-23T09:19:55.951Z,2888.00
2022-10-23T09:20:52.924Z,2928.00
2022-10-23T09:21:53.119Z,2940.00
2022-10-23T09:22:53.134Z,2992.00
2022-10-23T09:23:53.079Z,3088.00
2022-10-23T09:24:53.890Z,3292.00
2022-10-23T09:25:52.872Z,3972.00
2022-10-23T09:27:00.141Z,3840.00
2022-10-23T09:28:01.628Z,3768.00
2022-10-23T09:28:54.042Z,3596.00
2022-10-23T09:30:00.032Z,3696.00
2022-10-23T09:30:52.824Z,3916.00
2022-10-23T09:31:52.781Z,3764.00
2022-10-23T09:32:52.775Z,3656.00
2022-10-23T09:33:59.913Z,4000.00
2022-10-23T09:34:52.986Z,4328.00
2022-10-23T09:35:52.764Z,4452.00
2022-10-23T09:37:55.752Z,4332.00
2022-10-23T09:38:53.738Z,4268.00
2022-10-23T09:39:52.950Z,4372.00
2022-10-23T09:40:55.990Z,4252.00
2022-10-23T09:41:57.035Z,4172.00
2022-10-23T09:42:55.727Z,4228.00
2022-10-23T09:43:52.635Z,4028.00
2022-10-23T09:44:52.668Z,3700.00
2022-10-23T09:45:52.676Z,3528.00
2022-10-23T09:46:59.679Z,3432.00
2022-10-23T09:47:52.829Z,3376.00
2022-10-23T09:49:02.205Z,3240.00
2022-10-23T09:49:53.818Z,3056.00
2022-10-23T09:50:52.583Z,3096.00
2022-10-23T09:51:52.588Z,3012.00
2022-10-23T09:52:52.563Z,2732.00
2022-10-23T09:53:52.540Z,2516.00
2022-10-23T09:54:52.555Z,2444.00
2022-10-23T09:55:52.537Z,2444.00
2022-10-23T09:56:52.555Z,2340.00
2022-10-23T09:57:52.500Z,2204.00
2022-10-23T09:58:53.501Z,2160.00
2022-10-23T09:59:52.711Z,2280.00
2022-10-23T10:00:54.744Z,2480.00
2022-10-23T10:01:52.585Z,2492.00
2022-10-23T10:02:52.455Z,2524.00
2022-10-23T10:03:52.681Z,2584.00
2022-10-23T10:04:55.704Z,2656.00
2022-10-23T10:05:52.451Z,2736.00
2022-10-23T10:06:52.636Z,2716.00
2022-10-23T10:07:52.429Z,2588.00
2022-10-23T10:08:52.380Z,2612.00
2022-10-23T10:09:52.620Z,2800.00
2022-10-23T10:10:53.602Z,2852.00
2022-10-23T10:11:59.833Z,2992.00
2022-10-23T10:12:52.369Z,2984.00
2022-10-23T10:13:52.579Z,3284.00
2022-10-23T10:14:59.810Z,3444.00
2022-10-23T10:15:52.541Z,3360.00
2022-10-23T10:16:55.332Z,3100.00
2022-10-23T10:17:52.549Z,3080.00
2022-10-23T10:18:52.521Z,2860.00
2022-10-23T10:19:52.523Z,2968.00
2022-10-23T10:20:52.260Z,3432.00
2022-10-23T10:21:52.252Z,3540.00
2022-10-23T10:22:52.540Z,3512.00
2022-10-23T10:24:07.632Z,3272.00
2022-10-23T10:24:53.266Z,3500.00
2022-10-23T10:25:52.392Z,3508.00
2022-10-23T10:26:59.642Z,3692.00
2022-10-23T10:27:53.442Z,3716.00
2022-10-23T10:28:52.205Z,3544.00
2022-10-23T10:29:59.393Z,3352.00
2022-10-23T10:30:55.443Z,3084.00
2022-10-23T10:31:53.216Z,2872.00
2022-10-23T10:32:52.148Z,3016.00
2022-10-23T10:33:52.152Z,3148.00
2022-10-23T10:34:53.125Z,3288.00
2022-10-23T10:35:55.139Z,3220.00
2022-10-23T10:36:53.337Z,3232.00
2022-10-23T10:37:53.603Z,3224.00
2022-10-23T10:38:53.107Z,3532.00
2022-10-23T10:39:52.304Z,3596.00
2022-10-23T10:40:55.317Z,3512.00
2022-10-23T10:41:52.273Z,3616.00
2022-10-23T10:42:52.042Z,3572.00
2022-10-23T10:43:52.253Z,3592.00
2022-10-23T10:44:52.059Z,3736.00
2022-10-23T10:45:53.291Z,3692.00
2022-10-23T10:46:51.995Z,3616.00
2022-10-23T10:47:55.016Z,3564.00
2022-10-23T10:48:53.225Z,3348.00
2022-10-23T10:49:52.224Z,3032.00
2022-10-23T10:50:52.201Z,2956.00
2022-10-23T10:51:55.195Z,2760.00
2022-10-23T10:52:53.167Z,2600.00
2022-10-23T10:53:52.154Z,2704.00
2022-10-23T10:54:52.141Z,2788.00
2022-10-23T10:55:51.906Z,2796.00
2022-10-23T10:56:52.116Z,2668.00
2022-10-23T10:57:54.973Z,2956.00
2022-10-23T10:58:52.125Z,3116.00
2022-10-23T10:59:51.859Z,2708.00
2022-10-23T11:00:51.918Z,1920.00
2022-10-23T11:01:51.929Z,1932.00
2022-10-23T11:02:54.859Z,2408.00
2022-10-23T11:04:07.128Z,2888.00
2022-10-23T11:04:51.812Z,2916.00
2022-10-23T11:05:52.110Z,2576.00
2022-10-23T11:06:53.017Z,2012.00
2022-10-23T11:07:53.004Z,1540.00
2022-10-23T11:08:58.111Z,1444.00
2022-10-23T11:09:52.729Z,1876.00
2022-10-23T11:10:51.970Z,2384.00
2022-10-23T11:11:51.754Z,2804.00
2022-10-23T11:12:51.725Z,3056.00
2022-10-23T11:13:54.719Z,2624.00
2022-10-23T11:14:51.927Z,2216.00
2022-10-23T11:16:51.694Z,1844.00
2022-10-23T11:17:51.672Z,1812.00
2022-10-23T11:18:54.715Z,1672.00
2022-10-23T11:19:51.873Z,1436.00
2022-10-23T11:20:51.842Z,1224.00
2022-10-23T11:21:52.654Z,1056.00
2022-10-23T11:22:51.647Z,964.00
2022-10-23T11:23:59.072Z,896.00
2022-10-23T11:24:53.397Z,884.00
2022-10-23T11:25:52.575Z,888.00
2022-10-23T11:26:54.594Z,936.00
2022-10-23T11:27:51.803Z,992.00
2022-10-23T11:28:52.774Z,1008.00
2022-10-23T11:29:52.541Z,1056.00
2022-10-23T11:30:52.531Z,1164.00
2022-10-23T11:31:51.749Z,1260.00
2022-10-23T11:32:51.524Z,1408.00
2022-10-23T11:33:51.508Z,1592.00
2022-10-23T11:34:52.476Z,1676.00
2022-10-23T11:35:51.717Z,1672.00
2022-10-23T11:36:51.453Z,1752.00
2022-10-23T11:37:51.441Z,1992.00
2022-10-23T11:38:51.452Z,2308.00
2022-10-23T11:39:51.430Z,2576.00
2022-10-23T11:41:51.631Z,2840.00
2022-10-23T11:42:51.625Z,3044.00
2022-10-23T11:43:51.404Z,3384.00
2022-10-23T11:44:52.402Z,3568.00
2022-10-23T11:46:12.598Z,3616.00
2022-10-23T11:46:51.346Z,3328.00
2022-10-23T11:47:51.373Z,3164.00
2022-10-23T11:48:51.364Z,3228.00
2022-10-23T11:49:51.558Z,3108.00
2022-10-23T11:50:52.330Z,2884.00
2022-10-23T11:51:51.528Z,2764.00
2022-10-23T11:54:07.728Z,2792.00
2022-10-23T11:54:51.503Z,2792.00
2022-10-23T11:55:52.518Z,2924.00
2022-10-23T11:56:54.277Z,3440.00
2022-10-23T11:57:51.239Z,3532.00
2022-10-23T11:59:06.716Z,3252.00
2022-10-23T11:59:51.216Z,3008.00
2022-10-23T12:00:51.232Z,2628.00
2022-10-23T12:01:51.368Z,2476.00
2022-10-23T12:02:53.584Z,3188.00
2022-10-23T12:03:52.413Z,3624.00
2022-10-23T12:04:51.188Z,3768.00
2022-10-23T12:05:51.442Z,3968.00
2022-10-23T12:06:51.421Z,3840.00
2022-10-23T12:07:51.132Z,3864.00
2022-10-23T12:08:54.141Z,3332.00
2022-10-23T12:09:54.139Z,3176.00
2022-10-23T12:10:58.650Z,2724.00
2022-10-23T12:11:51.323Z,2532.00
2022-10-23T12:12:51.095Z,2388.00
2022-10-23T12:13:54.080Z,2084.00
2022-10-23T12:14:52.298Z,1592.00
2022-10-23T12:15:51.082Z,1488.00
2022-10-23T12:16:51.271Z,1712.00
2022-10-23T12:17:51.257Z,1868.00
2022-10-23T12:18:52.269Z,2324.00
2022-10-23T12:19:51.220Z,2988.00
2022-10-23T12:20:51.021Z,3060.00
2022-10-23T12:21:50.999Z,2392.00
2022-10-23T12:22:50.997Z,2440.00
2022-10-23T12:23:50.975Z,2692.00
2022-10-23T12:24:50.969Z,2716.00
2022-10-23T12:25:51.973Z,2896.00
2022-10-23T12:26:51.172Z,3088.00
2022-10-23T12:27:50.913Z,2988.00
2022-10-23T12:28:50.923Z,2868.00
2022-10-23T12:29:50.906Z,2532.00
2022-10-23T12:30:52.027Z,2692.00
2022-10-23T12:31:51.134Z,2636.00
2022-10-23T12:32:51.114Z,2340.00
2022-10-23T12:33:50.882Z,2320.00
2022-10-23T12:35:15.145Z,2184.00
2022-10-23T12:35:51.057Z,2476.00
2022-10-23T12:36:51.065Z,2624.00
2022-10-23T12:37:50.811Z,3120.00
2022-10-23T12:38:50.838Z,3004.00
2022-10-23T12:39:50.827Z,3108.00
2022-10-23T12:40:51.005Z,3268.00
2022-10-23T12:41:51.010Z,3284.00
2022-10-23T12:42:53.792Z,3220.00
2022-10-23T12:43:53.805Z,3008.00
2022-10-23T12:44:50.984Z,2560.00
2022-10-23T12:45:50.724Z,1920.00
2022-10-23T12:46:50.737Z,1252.00
2022-10-23T12:47:51.937Z,1072.00
2022-10-23T12:48:50.917Z,992.00